createdAt,value
2022-09-14T00:02:59.447Z,22.26
2022-09-14T00:13:00.977Z,22.19
2022-09-14T00:23:02.903Z,22.23
2022-09-14T00:33:04.413Z,22.13
2022-09-14T00:43:14.795Z,22.05
2022-09-14T00:53:16.835Z,22.01
2022-09-14T01:03:18.683Z,22.05
2022-09-14T01:13:49.433Z,22.06
2022-09-14T01:24:01.199Z,21.99
2022-09-14T01:34:12.680Z,21.78
2022-09-14T01:44:23.014Z,21.92
2022-09-14T01:54:39.205Z,21.75
2022-09-14T02:04:49.890Z,21.59
2022-09-14T02:14:54.198Z,21.50
2022-09-14T02:24:56.101Z,21.55
2022-09-14T02:35:19.846Z,21.48
2022-09-14T02:45:41.389Z,21.64
2022-09-14T02:55:59.893Z,21.71
2022-09-14T03:06:01.561Z,21.54
2022-09-14T03:16:09.441Z,21.50
2022-09-14T03:26:14.651Z,21.63
2022-09-14T03:36:19.500Z,21.35
2022-09-14T03:46:25.483Z,21.20
2022-09-14T03:56:28.655Z,20.71
2022-09-14T04:06:30.198Z,20.84
2022-09-14T04:16:32.075Z,21.02
2022-09-14T04:26:33.960Z,21.17
2022-09-14T04:36:35.441Z,21.06
2022-09-14T04:46:43.537Z,21.06
2022-09-14T04:56:47.817Z,21.31
2022-09-14T05:06:50.990Z,21.45
2022-09-14T05:16:52.415Z,21.63
2022-09-14T05:26:58.181Z,21.72
2022-09-14T05:37:01.631Z,21.75
2022-09-14T05:47:03.216Z,21.96
2022-09-14T05:57:04.826Z,21.93
2022-09-14T06:07:18.346Z,22.38
2022-09-14T06:17:20.537Z,22.95
2022-09-14T06:27:21.999Z,22.90
2022-09-14T06:37:23.681Z,22.74
2022-09-14T06:47:25.134Z,23.63
2022-09-14T06:57:26.551Z,24.92
2022-09-14T07:07:27.982Z,26.18
2022-09-14T07:17:29.456Z,26.62
2022-09-14T07:27:31.075Z,28.07
2022-09-14T07:37:32.510Z,27.97
2022-09-14T07:47:34.066Z,29.13
2022-09-14T07:57:55.118Z,31.27
2022-09-14T08:07:56.908Z,36.12
2022-09-14T08:17:58.370Z,37.86
2022-09-14T08:27:59.826Z,34.51
2022-09-14T08:38:01.214Z,34.56
2022-09-14T08:48:03.671Z,35.27
2022-09-14T08:58:20.515Z,33.71
2022-09-14T09:08:36.895Z,34.38
2022-09-14T09:18:53.518Z,35.70
2022-09-14T09:28:59.655Z,40.07
2022-09-14T09:39:04.935Z,41.42
2022-09-14T09:49:21.880Z,37.72
2022-09-14T09:59:42.267Z,33.64
2022-09-14T10:09:44.191Z,34.43
2022-09-14T10:19:54.757Z,37.63
2022-09-14T10:29:57.501Z,37.13
2022-09-14T10:40:13.498Z,38.65
2022-09-14T10:50:28.569Z,40.64
2022-09-14T11:00:37.149Z,42.16
2022-09-14T11:10:41.607Z,36.70
2022-09-14T11:21:10.523Z,34.32
2022-09-14T11:32:22.772Z,32.88
2022-09-14T11:42:37.193Z,33.33
2022-09-14T11:52:39.164Z,33.09
2022-09-14T12:02:49.191Z,33.78
2022-09-14T12:12:56.833Z,34.54
2022-09-14T12:23:21.062Z,34.20
2022-09-14T12:33:34.753Z,33.88
2022-09-14T12:43:36.332Z,34.03
2022-09-14T12:53:39.144Z,33.53
2022-09-14T13:03:54.002Z,33.13
2022-09-14T13:13:56.991Z,33.90
2022-09-14T13:23:58.615Z,33.75
2022-09-14T13:34:01.189Z,33.72
2022-09-14T13:44:03.155Z,33.13
2022-09-14T13:54:42.379Z,33.18
2022-09-14T14:04:50.035Z,32.58
2022-09-14T14:15:03.326Z,31.06
2022-09-14T14:25:29.739Z,30.16
2022-09-14T14:35:32.191Z,29.71
2022-09-14T14:45:36.654Z,29.49
2022-09-14T14:55:40.328Z,28.90
2022-09-14T15:05:43.854Z,28.64
2022-09-14T15:15:48.018Z,27.98
2022-09-14T15:25:53.276Z,27.72
2022-09-14T15:35:57.569Z,27.33
2022-09-14T15:46:04.470Z,26.85
2022-09-14T15:56:16.993Z,26.20
2022-09-14T16:06:18.849Z,26.50
2022-09-14T16:16:21.341Z,26.72
2022-09-14T16:26:28.583Z,26.42
2022-09-14T16:36:33.452Z,25.88
2022-09-14T16:46:35.051Z,25.67
2022-09-14T16:56:39.741Z,25.56
2022-09-14T17:06:46.744Z,25.25
2022-09-14T17:16:48.609Z,25.01
2022-09-14T17:26:50.925Z,24.56
2022-09-14T17:36:54.096Z,24.18
2022-09-14T17:46:55.853Z,23.77
2022-09-14T17:56:57.692Z,23.61
2022-09-14T18:06:59.578Z,23.09
2022-09-14T18:17:02.220Z,23.04
2022-09-14T18:27:03.965Z,22.82
2022-09-14T18:37:06.061Z,22.93
2022-09-14T18:47:07.665Z,22.97
2022-09-14T18:57:09.555Z,23.03
2022-09-14T19:07:11.111Z,22.91
2022-09-14T19:17:12.857Z,22.83
2022-09-14T19:27:14.560Z,22.39
2022-09-14T19:37:16.272Z,22.15
2022-09-14T19:47:17.869Z,21.96
2022-09-14T19:57:19.408Z,21.86
2022-09-14T20:07:21.054Z,21.66
2022-09-14T20:17:22.868Z,21.55
2022-09-14T20:27:24.461Z,21.46
2022-09-14T20:37:27.975Z,21.45
2022-09-14T20:47:29.514Z,21.35
2022-09-14T20:57:32.256Z,21.45
2022-09-14T21:07:33.872Z,21.26
2022-09-14T21:17:35.520Z,21.18
2022-09-14T21:27:38.305Z,20.93
2022-09-14T21:37:39.956Z,21.18
2022-09-14T21:47:41.925Z,21.12
2022-09-14T21:57:43.450Z,21.24
2022-09-14T22:07:45.025Z,21.21
2022-09-14T22:17:48.780Z,21.36
2022-09-14T22:27:51.332Z,21.60
2022-09-14T22:37:52.915Z,21.55
2022-09-14T22:47:54.457Z,21.24
2022-09-14T22:57:56.006Z,21.07
2022-09-14T23:07:57.757Z,20.89
2022-09-14T23:17:59.302Z,20.86
2022-09-14T23:28:02.445Z,20.84
2022-09-14T23:38:04.045Z,20.85
2022-09-14T23:48:05.632Z,20.69
2022-09-14T23:58:07.216Z,20.70
